sensor_id;sensor_type;location;lat;lon;timestamp;pressure;altitude;pressure_sealevel;temperature;humidity
16821;BME280;8527;49.740;6.604;2022-12-20T00:00:24;100036.94;;;3.31;100.00
16821;BME280;8527;49.740;6.604;2022-12-20T00:05:23;100034.56;;;3.28;100.00
16821;BME280;8527;49.740;6.604;2022-12-20T00:10:26;100017.06;;;3.29;100.00
16821;BME280;8527;49.740;6.604;2022-12-20T00:15:26;100019.94;;;3.48;100.00
16821;BME280;8527;49.740;6.604;2022-12-20T00:20:31;100022.22;;;3.53;100.00
16821;BME280;8527;49.740;6.604;2022-12-20T00:25:32;100029.31;;;3.28;100.00
16821;BME280;8527;49.740;6.604;2022-12-20T00:30:36;100037.25;;;3.15;100.00
16821;BME280;8527;49.740;6.604;2022-12-20T00:35:40;100027.38;;;3.19;100.00
16821;BME280;8527;49.740;6.604;2022-12-20T00:40:41;100030.66;;;3.09;100.00
16821;BME280;8527;49.740;6.604;2022-12-20T00:45:40;100025.31;;;3.11;100.00
16821;BME280;8527;49.740;6.604;2022-12-20T00:50:44;100007.41;;;2.93;100.00
16821;BME280;8527;49.740;6.604;2022-12-20T00:55:51;100004.16;;;2.90;100.00
16821;BME280;8527;49.740;6.604;2022-12-20T01:00:50;99990.09;;;2.91;100.00
16821;BME280;8527;49.740;6.604;2022-12-20T01:05:53;99994.47;;;2.79;100.00
16821;BME280;8527;49.740;6.604;2022-12-20T01:11:10;99991.94;;;2.77;100.00
16821;BME280;8527;49.740;6.604;2022-12-20T01:16:11;99983.63;;;2.84;100.00
16821;BME280;8527;49.740;6.604;2022-12-20T01:21:14;99978.16;;;3.22;100.00
16821;BME280;8527;49.740;6.604;2022-12-20T01:26:20;99983.97;;;3.62;100.00
16821;BME280;8527;49.740;6.604;2022-12-20T01:31:20;99969.56;;;3.90;100.00
16821;BME280;8527;49.740;6.604;2022-12-20T01:36:25;99972.72;;;4.17;100.00
16821;BME280;8527;49.740;6.604;2022-12-20T01:41:27;99965.25;;;3.66;100.00
16821;BME280;8527;49.740;6.604;2022-12-20T01:46:28;99964.41;;;3.43;100.00
16821;BME280;8527;49.740;6.604;2022-12-20T01:51:28;99966.78;;;3.46;100.00
16821;BME280;8527;49.740;6.604;2022-12-20T01:56:30;99964.19;;;3.92;100.00
16821;BME280;8527;49.740;6.604;2022-12-20T02:01:32;99968.25;;;4.52;100.00
16821;BME280;8527;49.740;6.604;2022-12-20T02:06:39;99977.91;;;4.62;100.00
16821;BME280;8527;49.740;6.604;2022-12-20T02:12:06;99966.47;;;4.85;100.00
16821;BME280;8527;49.740;6.604;2022-12-20T02:17:25;99964.50;;;4.21;100.00
16821;BME280;8527;49.740;6.604;2022-12-20T02:22:39;99943.06;;;3.82;100.00
16821;BME280;8527;49.740;6.604;2022-12-20T02:27:59;99933.16;;;3.86;100.00
16821;BME280;8527;49.740;6.604;2022-12-20T02:33:03;99923.13;;;3.91;100.00
16821;BME280;8527;49.740;6.604;2022-12-20T02:43:23;99928.94;;;4.61;100.00
16821;BME280;8527;49.740;6.604;2022-12-20T02:48:48;99920.34;;;5.44;100.00
16821;BME280;8527;49.740;6.604;2022-12-20T02:53:52;99912.75;;;5.82;100.00
16821;BME280;8527;49.740;6.604;2022-12-20T02:58:54;99911.47;;;5.76;100.00
16821;BME280;8527;49.740;6.604;2022-12-20T03:04:05;99913.31;;;5.86;100.00
16821;BME280;8527;49.740;6.604;2022-12-20T03:09:03;99896.78;;;5.74;100.00
16821;BME280;8527;49.740;6.604;2022-12-20T03:14:02;99890.13;;;6.11;100.00
16821;BME280;8527;49.740;6.604;2022-12-20T03:19:03;99892.63;;;6.42;100.00
16821;BME280;8527;49.740;6.604;2022-12-20T03:24:03;99884.03;;;6.50;100.00
16821;BME280;8527;49.740;6.604;2022-12-20T03:29:03;99897.66;;;6.55;100.00
16821;BME280;8527;49.740;6.604;2022-12-20T03:34:04;99905.38;;;6.17;100.00
16821;BME280;8527;49.740;6.604;2022-12-20T03:39:03;99902.78;;;6.46;100.00
16821;BME280;8527;49.740;6.604;2022-12-20T03:44:01;99899.75;;;6.71;100.00
16821;BME280;8527;49.740;6.604;2022-12-20T03:49:00;99903.59;;;6.86;100.00
16821;BME280;8527;49.740;6.604;2022-12-20T03:54:09;99895.41;;;6.70;100.00
16821;BME280;8527;49.740;6.604;2022-12-20T03:59:08;99915.09;;;6.75;100.00
16821;BME280;8527;49.740;6.604;2022-12-20T04:04:08;99904.03;;;6.52;100.00
16821;BME280;8527;49.740;6.604;2022-12-20T04:09:13;99891.53;;;6.54;100.00
16821;BME280;8527;49.740;6.604;2022-12-20T04:14:14;99890.84;;;6.52;100.00
16821;BME280;8527;49.740;6.604;2022-12-20T04:19:18;99877.09;;;6.48;100.00
16821;BME280;8527;49.740;6.604;2022-12-20T04:24:26;99887.13;;;6.45;100.00
16821;BME280;8527;49.740;6.604;2022-12-20T04:29:27;99879.63;;;6.40;100.00
16821;BME280;8527;49.740;6.604;2022-12-20T04:34:36;99875.44;;;6.67;100.00
16821;BME280;8527;49.740;6.604;2022-12-20T04:39:37;99873.78;;;6.56;100.00
16821;BME280;8527;49.740;6.604;2022-12-20T04:44:38;99867.91;;;6.82;100.00
16821;BME280;8527;49.740;6.604;2022-12-20T04:49:41;99870.16;;;6.77;100.00
16821;BME280;8527;49.740;6.604;2022-12-20T04:54:45;99856.16;;;6.67;100.00
16821;BME280;8527;49.740;6.604;2022-12-20T04:59:43;99858.09;;;6.74;100.00
16821;BME280;8527;49.740;6.604;2022-12-20T05:04:46;99855.72;;;6.81;100.00
16821;BME280;8527;49.740;6.604;2022-12-20T05:09:47;99851.78;;;7.05;100.00
16821;BME280;8527;49.740;6.604;2022-12-20T05:15:00;99861.50;;;6.95;100.00
16821;BME280;8527;49.740;6.604;2022-12-20T05:20:01;99856.06;;;7.06;100.00
16821;BME280;8527;49.740;6.604;2022-12-20T05:25:02;99840.69;;;7.39;100.00
16821;BME280;8527;49.740;6.604;2022-12-20T05:30:13;99837.91;;;7.41;100.00
16821;BME280;8527;49.740;6.604;2022-12-20T05:35:11;99847.16;;;7.55;100.00
16821;BME280;8527;49.740;6.604;2022-12-20T05:40:13;99836.41;;;7.38;100.00
16821;BME280;8527;49.740;6.604;2022-12-20T05:45:12;99848.91;;;7.36;100.00
16821;BME280;8527;49.740;6.604;2022-12-20T05:50:13;99843.50;;;7.66;100.00
16821;BME280;8527;49.740;6.604;2022-12-20T05:55:14;99834.41;;;7.78;100.00
16821;BME280;8527;49.740;6.604;2022-12-20T06:00:14;99825.53;;;7.97;100.00
16821;BME280;8527;49.740;6.604;2022-12-20T06:05:18;99834.41;;;7.96;100.00
16821;BME280;8527;49.740;6.604;2022-12-20T06:10:19;99818.50;;;8.06;100.00
16821;BME280;8527;49.740;6.604;2022-12-20T06:15:18;99821.72;;;8.00;100.00
16821;BME280;8527;49.740;6.604;2022-12-20T06:20:17;99808.75;;;8.07;100.00
16821;BME280;8527;49.740;6.604;2022-12-20T06:25:21;99808.16;;;7.95;100.00
16821;BME280;8527;49.740;6.604;2022-12-20T06:30:20;99808.81;;;7.79;100.00
16821;BME280;8527;49.740;6.604;2022-12-20T06:35:18;99805.13;;;7.71;100.00
16821;BME280;8527;49.740;6.604;2022-12-20T06:40:26;99810.59;;;7.60;100.00
16821;BME280;8527;49.740;6.604;2022-12-20T06:45:24;99801.97;;;7.58;100.00
16821;BME280;8527;49.740;6.604;2022-12-20T06:50:22;99808.91;;;7.87;100.00
16821;BME280;8527;49.740;6.604;2022-12-20T06:55:21;99792.16;;;7.96;100.00
16821;BME280;8527;49.740;6.604;2022-12-20T07:00:22;99791.09;;;8.07;100.00
16821;BME280;8527;49.740;6.604;2022-12-20T07:05:27;99775.31;;;7.97;100.00
16821;BME280;8527;49.740;6.604;2022-12-20T07:10:28;99776.00;;;7.99;100.00
16821;BME280;8527;49.740;6.604;2022-12-20T07:15:29;99776.81;;;8.00;100.00
16821;BME280;8527;49.740;6.604;2022-12-20T07:20:31;99764.66;;;7.89;100.00
16821;BME280;8527;49.740;6.604;2022-12-20T07:25:32;99757.34;;;7.83;100.00
16821;BME280;8527;49.740;6.604;2022-12-20T07:30:33;99762.91;;;7.80;100.00
16821;BME280;8527;49.740;6.604;2022-12-20T07:35:32;99767.69;;;7.94;100.00
16821;BME280;8527;49.740;6.604;2022-12-20T07:40:32;99757.50;;;8.18;100.00
16821;BME280;8527;49.740;6.604;2022-12-20T07:45:34;99753.66;;;8.12;100.00
16821;BME280;8527;49.740;6.604;2022-12-20T07:50:33;99765.78;;;8.05;100.00
16821;BME280;8527;49.740;6.604;2022-12-20T07:55:32;99769.41;;;8.03;100.00
16821;BME280;8527;49.740;6.604;2022-12-20T08:00:39;99774.13;;;8.10;100.00
16821;BME280;8527;49.740;6.604;2022-12-20T08:05:40;99764.88;;;8.14;100.00
16821;BME280;8527;49.740;6.604;2022-12-20T08:10:41;99773.94;;;8.74;100.00
16821;BME280;8527;49.740;6.604;2022-12-20T08:15:46;99781.84;;;8.48;100.00
16821;BME280;8527;49.740;6.604;2022-12-20T08:20:45;99790.75;;;8.47;100.00
16821;BME280;8527;49.740;6.604;2022-12-20T08:25:46;99778.19;;;8.67;100.00
16821;BME280;8527;49.740;6.604;2022-12-20T08:30:49;99767.88;;;8.55;100.00
16821;BME280;8527;49.740;6.604;2022-12-20T08:35:59;99772.69;;;8.86;100.00
16821;BME280;8527;49.740;6.604;2022-12-20T08:41:01;99772.94;;;9.01;100.00
16821;BME280;8527;49.740;6.604;2022-12-20T08:46:12;99768.25;;;9.30;100.00
16821;BME280;8527;49.740;6.604;2022-12-20T08:51:14;99761.72;;;9.51;100.00
16821;BME280;8527;49.740;6.604;2022-12-20T08:56:15;99750.81;;;9.62;100.00
16821;BME280;8527;49.740;6.604;2022-12-20T09:01:20;99751.81;;;9.61;100.00
16821;BME280;8527;49.740;6.604;2022-12-20T09:06:22;99759.25;;;9.66;100.00
16821;BME280;8527;49.740;6.604;2022-12-20T09:11:24;99767.56;;;9.71;100.00
16821;BME280;8527;49.740;6.604;2022-12-20T09:21:25;99758.81;;;9.87;100.00
16821;BME280;8527;49.740;6.604;2022-12-20T09:26:24;99754.66;;;9.84;100.00
16821;BME280;8527;49.740;6.604;2022-12-20T09:31:25;99758.81;;;10.04;100.00
16821;BME280;8527;49.740;6.604;2022-12-20T09:36:28;99758.97;;;10.02;100.00
16821;BME280;8527;49.740;6.604;2022-12-20T09:41:31;99769.59;;;10.19;100.00
16821;BME280;8527;49.740;6.604;2022-12-20T09:46:35;99762.47;;;10.19;100.00
16821;BME280;8527;49.740;6.604;2022-12-20T09:51:57;99754.84;;;10.16;100.00
16821;BME280;8527;49.740;6.604;2022-12-20T09:57:04;99757.81;;;10.30;100.00
16821;BME280;8527;49.740;6.604;2022-12-20T10:02:08;99754.50;;;10.36;99.62
16821;BME280;8527;49.740;6.604;2022-12-20T10:07:24;99744.88;;;10.35;100.00
16821;BME280;8527;49.740;6.604;2022-12-20T10:12:34;99738.63;;;10.52;98.93
16821;BME280;8527;49.740;6.604;2022-12-20T10:17:49;99729.66;;;10.62;97.78
16821;BME280;8527;49.740;6.604;2022-12-20T10:22:58;99735.56;;;10.72;97.24
16821;BME280;8527;49.740;6.604;2022-12-20T10:28:10;99712.03;;;10.77;97.08
16821;BME280;8527;49.740;6.604;2022-12-20T10:33:15;99715.31;;;10.79;96.72
16821;BME280;8527;49.740;6.604;2022-12-20T10:38:19;99701.03;;;10.89;95.75
16821;BME280;8527;49.740;6.604;2022-12-20T10:43:20;99690.06;;;10.92;95.89
16821;BME280;8527;49.740;6.604;2022-12-20T10:48:27;99688.84;;;11.03;95.47
16821;BME280;8527;49.740;6.604;2022-12-20T10:53:32;99698.56;;;11.19;95.10
16821;BME280;8527;49.740;6.604;2022-12-20T10:58:33;99690.72;;;11.25;94.31
16821;BME280;8527;49.740;6.604;2022-12-20T11:03:32;99701.63;;;11.39;93.99
16821;BME280;8527;49.740;6.604;2022-12-20T11:08:36;99700.94;;;11.45;92.94
16821;BME280;8527;49.740;6.604;2022-12-20T11:13:38;99695.41;;;11.47;92.50
16821;BME280;8527;49.740;6.604;2022-12-20T11:18:49;99669.50;;;11.49;92.48
16821;BME280;8527;49.740;6.604;2022-12-20T11:23:57;99652.44;;;11.43;92.52
16821;BME280;8527;49.740;6.604;2022-12-20T11:29:10;99628.72;;;11.42;92.81
16821;BME280;8527;49.740;6.604;2022-12-20T11:34:21;99617.91;;;11.43;92.87
16821;BME280;8527;49.740;6.604;2022-12-20T11:39:31;99613.25;;;11.45;92.34
16821;BME280;8527;49.740;6.604;2022-12-20T11:44:45;99610.88;;;11.50;91.77
16821;BME280;8527;49.740;6.604;2022-12-20T11:49:56;99591.13;;;11.68;90.62
16821;BME280;8527;49.740;6.604;2022-12-20T11:55:08;99581.56;;;11.82;89.85
16821;BME280;8527;49.740;6.604;2022-12-20T12:00:16;99569.84;;;11.91;89.79
16821;BME280;8527;49.740;6.604;2022-12-20T12:05:19;99565.81;;;11.95;89.52
16821;BME280;8527;49.740;6.604;2022-12-20T12:10:23;99582.28;;;11.91;90.33
16821;BME280;8527;49.740;6.604;2022-12-20T12:15:29;99580.00;;;11.88;90.14
16821;BME280;8527;49.740;6.604;2022-12-20T12:20:35;99586.16;;;11.88;90.02
16821;BME280;8527;49.740;6.604;2022-12-20T12:25:46;99592.56;;;11.94;89.92
16821;BME280;8527;49.740;6.604;2022-12-20T12:30:50;99590.31;;;12.06;88.87
16821;BME280;8527;49.740;6.604;2022-12-20T12:47:11;99577.22;;;12.19;88.23
16821;BME280;8527;49.740;6.604;2022-12-20T12:52:35;99567.31;;;12.28;87.68
16821;BME280;8527;49.740;6.604;2022-12-20T12:57:57;99556.13;;;12.33;87.37
16821;BME280;8527;49.740;6.604;2022-12-20T13:02:56;99534.91;;;12.55;86.19
16821;BME280;8527;49.740;6.604;2022-12-20T13:07:54;99538.50;;;12.47;86.25
16821;BME280;8527;49.740;6.604;2022-12-20T13:12:59;99535.38;;;12.43;87.02
16821;BME280;8527;49.740;6.604;2022-12-20T13:18:03;99531.63;;;12.37;87.26
16821;BME280;8527;49.740;6.604;2022-12-20T13:23:14;99536.66;;;12.32;87.85
16821;BME280;8527;49.740;6.604;2022-12-20T13:28:45;99532.25;;;12.24;88.05
16821;BME280;8527;49.740;6.604;2022-12-20T13:33:45;99541.47;;;12.22;87.33
16821;BME280;8527;49.740;6.604;2022-12-20T13:38:53;99532.84;;;12.20;88.15
16821;BME280;8527;49.740;6.604;2022-12-20T13:43:56;99523.09;;;12.12;88.26
16821;BME280;8527;49.740;6.604;2022-12-20T13:48:58;99529.25;;;12.13;87.93
16821;BME280;8527;49.740;6.604;2022-12-20T13:54:03;99516.13;;;12.11;88.02
16821;BME280;8527;49.740;6.604;2022-12-20T13:59:07;99521.28;;;12.13;88.04
16821;BME280;8527;49.740;6.604;2022-12-20T14:04:10;99520.34;;;12.20;87.32
16821;BME280;8527;49.740;6.604;2022-12-20T14:09:26;99513.75;;;12.16;87.46
16821;BME280;8527;49.740;6.604;2022-12-20T14:14:28;99518.25;;;12.16;87.69
16821;BME280;8527;49.740;6.604;2022-12-20T14:19:26;99503.59;;;12.05;88.68
16821;BME280;8527;49.740;6.604;2022-12-20T14:24:31;99501.63;;;11.99;88.22
16821;BME280;8527;49.740;6.604;2022-12-20T14:29:34;99510.59;;;11.98;89.00
16821;BME280;8527;49.740;6.604;2022-12-20T14:34:33;99495.22;;;11.93;89.24
16821;BME280;8527;49.740;6.604;2022-12-20T14:39:33;99510.91;;;11.88;89.44
16821;BME280;8527;49.740;6.604;2022-12-20T14:44:38;99495.94;;;11.87;89.56
16821;BME280;8527;49.740;6.604;2022-12-20T14:49:46;99487.13;;;11.86;89.46
16821;BME280;8527;49.740;6.604;2022-12-20T14:54:53;99482.66;;;11.57;91.08
16821;BME280;8527;49.740;6.604;2022-12-20T15:00:12;99482.19;;;11.53;91.08
16821;BME280;8527;49.740;6.604;2022-12-20T15:05:41;99478.22;;;11.34;92.09
16821;BME280;8527;49.740;6.604;2022-12-20T15:10:41;99489.34;;;11.14;93.87
16821;BME280;8527;49.740;6.604;2022-12-20T15:15:42;99477.72;;;11.15;94.46
16821;BME280;8527;49.740;6.604;2022-12-20T15:20:42;99468.69;;;11.24;94.80
16821;BME280;8527;49.740;6.604;2022-12-20T15:25:42;99467.72;;;11.17;95.66
16821;BME280;8527;49.740;6.604;2022-12-20T15:30:44;99478.56;;;10.92;97.38
16821;BME280;8527;49.740;6.604;2022-12-20T15:35:43;99470.72;;;10.76;100.00
16821;BME280;8527;49.740;6.604;2022-12-20T15:40:43;99490.53;;;10.65;100.00
16821;BME280;8527;49.740;6.604;2022-12-20T15:45:47;99491.00;;;10.68;100.00
16821;BME280;8527;49.740;6.604;2022-12-20T15:50:55;99481.31;;;10.52;100.00
16821;BME280;8527;49.740;6.604;2022-12-20T15:55:59;99466.56;;;10.50;100.00
16821;BME280;8527;49.740;6.604;2022-12-20T16:01:01;99460.69;;;10.31;100.00
16821;BME280;8527;49.740;6.604;2022-12-20T16:06:12;99478.06;;;10.34;100.00
16821;BME280;8527;49.740;6.604;2022-12-20T16:11:18;99473.19;;;10.14;100.00
16821;BME280;8527;49.740;6.604;2022-12-20T16:16:22;99474.88;;;10.07;100.00
16821;BME280;8527;49.740;6.604;2022-12-20T16:21:33;99468.72;;;10.14;100.00
16821;BME280;8527;49.740;6.604;2022-12-20T16:26:32;99476.72;;;10.06;100.00
16821;BME280;8527;49.740;6.604;2022-12-20T16:31:40;99464.63;;;10.04;100.00
16821;BME280;8527;49.740;6.604;2022-12-20T16:36:39;99463.28;;;10.08;100.00
16821;BME280;8527;49.740;6.604;2022-12-20T16:41:39;99448.22;;;10.00;100.00
16821;BME280;8527;49.740;6.604;2022-12-20T16:46:42;99435.00;;;9.92;100.00
16821;BME280;8527;49.740;6.604;2022-12-20T16:51:44;99425.94;;;9.86;100.00
16821;BME280;8527;49.740;6.604;2022-12-20T16:56:43;99439.72;;;9.81;100.00
16821;BME280;8527;49.740;6.604;2022-12-20T17:01:54;99432.94;;;9.70;100.00
16821;BME280;8527;49.740;6.604;2022-12-20T17:06:52;99441.88;;;9.69;100.00
16821;BME280;8527;49.740;6.604;2022-12-20T17:11:53;99439.13;;;9.54;100.00
16821;BME280;8527;49.740;6.604;2022-12-20T17:16:57;99442.59;;;9.63;100.00
16821;BME280;8527;49.740;6.604;2022-12-20T17:21:55;99447.91;;;9.55;100.00
16821;BME280;8527;49.740;6.604;2022-12-20T17:26:56;99446.72;;;9.57;100.00
16821;BME280;8527;49.740;6.604;2022-12-20T17:32:00;99444.25;;;9.56;100.00
16821;BME280;8527;49.740;6.604;2022-12-20T17:37:03;99441.03;;;9.77;100.00
16821;BME280;8527;49.740;6.604;2022-12-20T17:42:01;99426.28;;;9.83;100.00
16821;BME280;8527;49.740;6.604;2022-12-20T17:47:02;99420.53;;;9.71;100.00
16821;BME280;8527;49.740;6.604;2022-12-20T17:52:01;99428.00;;;9.59;100.00
16821;BME280;8527;49.740;6.604;2022-12-20T17:56:59;99431.16;;;9.63;100.00
16821;BME280;8527;49.740;6.604;2022-12-20T18:01:57;99420.75;;;9.61;100.00
16821;BME280;8527;49.740;6.604;2022-12-20T18:07:01;99433.00;;;9.62;100.00
16821;BME280;8527;49.740;6.604;2022-12-20T18:12:03;99418.88;;;9.70;100.00
16821;BME280;8527;49.740;6.604;2022-12-20T18:17:01;99423.84;;;9.65;100.00
16821;BME280;8527;49.740;6.604;2022-12-20T18:22:08;99424.31;;;9.77;100.00
16821;BME280;8527;49.740;6.604;2022-12-20T18:27:14;99432.94;;;9.79;100.00
16821;BME280;8527;49.740;6.604;2022-12-20T18:32:15;99437.25;;;9.71;100.00
16821;BME280;8527;49.740;6.604;2022-12-20T18:37:19;99434.09;;;9.76;100.00
16821;BME280;8527;49.740;6.604;2022-12-20T18:42:18;99435.19;;;9.90;100.00
16821;BME280;8527;49.740;6.604;2022-12-20T18:47:16;99435.34;;;9.97;100.00
16821;BME280;8527;49.740;6.604;2022-12-20T18:52:17;99445.59;;;10.00;100.00
16821;BME280;8527;49.740;6.604;2022-12-20T18:57:18;99444.56;;;10.09;100.00
16821;BME280;8527;49.740;6.604;2022-12-20T19:02:20;99448.22;;;10.08;100.00
16821;BME280;8527;49.740;6.604;2022-12-20T19:07:22;99445.44;;;10.02;100.00
16821;BME280;8527;49.740;6.604;2022-12-20T19:12:20;99446.81;;;9.89;100.00
16821;BME280;8527;49.740;6.604;2022-12-20T19:17:19;99443.59;;;10.02;100.00
16821;BME280;8527;49.740;6.604;2022-12-20T19:22:17;99439.13;;;10.03;100.00
16821;BME280;8527;49.740;6.604;2022-12-20T19:27:22;99430.53;;;10.01;100.00
16821;BME280;8527;49.740;6.604;2022-12-20T19:32:20;99426.53;;;10.05;100.00
16821;BME280;8527;49.740;6.604;2022-12-20T19:37:19;99423.16;;;10.11;100.00
16821;BME280;8527;49.740;6.604;2022-12-20T19:42:21;99413.91;;;10.07;100.00
16821;BME280;8527;49.740;6.604;2022-12-20T19:47:19;99407.09;;;10.12;100.00
16821;BME280;8527;49.740;6.604;2022-12-20T19:52:21;99408.13;;;10.03;100.00
16821;BME280;8527;49.740;6.604;2022-12-20T19:57:22;99410.78;;;10.03;100.00
16821;BME280;8527;49.740;6.604;2022-12-20T20:02:21;99408.63;;;10.07;100.00
16821;BME280;8527;49.740;6.604;2022-12-20T20:07:19;99403.16;;;10.08;100.00
16821;BME280;8527;49.740;6.604;2022-12-20T20:12:18;99395.84;;;10.10;100.00
16821;BME280;8527;49.740;6.604;2022-12-20T20:17:27;99405.16;;;10.06;100.00
16821;BME280;8527;49.740;6.604;2022-12-20T20:22:26;99403.16;;;10.08;100.00
16821;BME280;8527;49.740;6.604;2022-12-20T20:27:24;99400.31;;;10.10;100.00
16821;BME280;8527;49.740;6.604;2022-12-20T20:32:26;99397.38;;;10.05;100.00
16821;BME280;8527;49.740;6.604;2022-12-20T20:37:27;99391.91;;;10.06;100.00
16821;BME280;8527;49.740;6.604;2022-12-20T20:42:28;99393.84;;;10.12;100.00
16821;BME280;8527;49.740;6.604;2022-12-20T20:47:29;99399.78;;;10.14;100.00
16821;BME280;8527;49.740;6.604;2022-12-20T20:52:27;99392.06;;;10.05;100.00
16821;BME280;8527;49.740;6.604;2022-12-20T20:57:26;99384.88;;;10.13;100.00
16821;BME280;8527;49.740;6.604;2022-12-20T21:02:24;99385.09;;;10.12;100.00
16821;BME280;8527;49.740;6.604;2022-12-20T21:07:28;99377.94;;;10.12;100.00
16821;BME280;8527;49.740;6.604;2022-12-20T21:12:29;99375.81;;;10.08;100.00
16821;BME280;8527;49.740;6.604;2022-12-20T21:17:29;99371.22;;;10.02;100.00
16821;BME280;8527;49.740;6.604;2022-12-20T21:22:36;99374.28;;;10.13;100.00
16821;BME280;8527;49.740;6.604;2022-12-20T21:27:34;99369.94;;;10.21;100.00
16821;BME280;8527;49.740;6.604;2022-12-20T21:32:33;99367.81;;;10.16;100.00
16821;BME280;8527;49.740;6.604;2022-12-20T21:37:37;99365.53;;;10.13;100.00
16821;BME280;8527;49.740;6.604;2022-12-20T21:42:37;99362.00;;;10.21;100.00
16821;BME280;8527;49.740;6.604;2022-12-20T21:47:36;99350.66;;;10.27;100.00
16821;BME280;8527;49.740;6.604;2022-12-20T21:52:37;99359.50;;;10.19;100.00
16821;BME280;8527;49.740;6.604;2022-12-20T21:57:35;99355.44;;;10.08;100.00
16821;BME280;8527;49.740;6.604;2022-12-20T22:02:38;99362.44;;;10.01;100.00
16821;BME280;8527;49.740;6.604;2022-12-20T22:07:39;99369.22;;;10.04;100.00
16821;BME280;8527;49.740;6.604;2022-12-20T22:12:37;99367.22;;;10.06;100.00
16821;BME280;8527;49.740;6.604;2022-12-20T22:17:38;99360.38;;;10.11;100.00
16821;BME280;8527;49.740;6.604;2022-12-20T22:22:40;99362.50;;;9.93;100.00
16821;BME280;8527;49.740;6.604;2022-12-20T22:27:41;99358.97;;;10.01;100.00
16821;BME280;8527;49.740;6.604;2022-12-20T22:32:39;99358.97;;;10.01;100.00
16821;BME280;8527;49.740;6.604;2022-12-20T22:37:40;99347.84;;;10.05;100.00
16821;BME280;8527;49.740;6.604;2022-12-20T22:42:39;99352.28;;;10.13;100.00
16821;BME280;8527;49.740;6.604;2022-12-20T22:47:39;99358.56;;;10.12;100.00
16821;BME280;8527;49.740;6.604;2022-12-20T22:52:45;99354.31;;;10.03;100.00
16821;BME280;8527;49.740;6.604;2022-12-20T22:57:52;99352.44;;;10.11;100.00
16821;BME280;8527;49.740;6.604;2022-12-20T23:02:58;99351.91;;;10.16;100.00
16821;BME280;8527;49.740;6.604;2022-12-20T23:08:02;99356.56;;;10.14;100.00
16821;BME280;8527;49.740;6.604;2022-12-20T23:13:00;99355.22;;;10.18;100.00
16821;BME280;8527;49.740;6.604;2022-12-20T23:18:11;99352.97;;;10.07;100.00
16821;BME280;8527;49.740;6.604;2022-12-20T23:23:13;99352.41;;;10.20;100.00
16821;BME280;8527;49.740;6.604;2022-12-20T23:28:12;99342.31;;;10.15;100.00
16821;BME280;8527;49.740;6.604;2022-12-20T23:33:13;99340.31;;;10.17;100.00
16821;BME280;8527;49.740;6.604;2022-12-20T23:38:15;99331.63;;;10.23;100.00
16821;BME280;8527;49.740;6.604;2022-12-20T23:43:18;99335.28;;;10.22;100.00
16821;BME280;8527;49.740;6.604;2022-12-20T23:48:17;99340.47;;;10.16;100.00
16821;BME280;8527;49.740;6.604;2022-12-20T23:53:20;99336.78;;;10.25;100.00
16821;BME280;8527;49.740;6.604;2022-12-20T23:58:18;99335.47;;;10.21;100.00
